createdAt,value
2022-10-22T00:01:54.994Z,13.60
2022-10-22T00:06:56.959Z,13.05
2022-10-22T00:11:58.690Z,13.75
2022-10-22T00:17:04.214Z,17.55
2022-10-22T00:22:09.891Z,13.48
2022-10-22T00:27:12.692Z,11.60
2022-10-22T00:32:15.154Z,12.45
2022-10-22T00:37:16.852Z,11.98
2022-10-22T00:42:21.903Z,13.07
2022-10-22T00:47:25.210Z,15.98
2022-10-22T00:52:27.269Z,14.85
2022-10-22T00:57:29.255Z,12.02
2022-10-22T01:02:30.827Z,16.20
2022-10-22T01:13:35.403Z,12.68
2022-10-22T01:19:01.053Z,14.73
2022-10-22T01:24:11.374Z,11.70
2022-10-22T01:29:25.758Z,19.95
2022-10-22T01:34:29.502Z,10.13
2022-10-22T01:39:31.690Z,10.38
2022-10-22T01:50:04.978Z,13.38
2022-10-22T01:55:26.877Z,12.27
2022-10-22T02:00:29.155Z,10.18
2022-10-22T02:05:38.504Z,10.00
2022-10-22T02:10:44.630Z,11.53
2022-10-22T02:15:50.307Z,10.15
2022-10-22T02:20:52.971Z,10.57
2022-10-22T02:26:09.317Z,10.38
2022-10-22T02:31:17.357Z,9.73
2022-10-22T02:36:19.221Z,14.10
2022-10-22T02:41:21.288Z,12.35
2022-10-22T02:46:25.661Z,16.13
2022-10-22T02:51:27.409Z,16.55
2022-10-22T02:56:28.841Z,17.23
2022-10-22T03:01:30.566Z,21.83
2022-10-22T03:06:32.863Z,19.65
2022-10-22T03:11:34.716Z,17.48
2022-10-22T03:16:36.437Z,17.35
2022-10-22T03:21:50.735Z,16.48
2022-10-22T03:26:52.927Z,16.17
2022-10-22T03:31:55.836Z,13.70
2022-10-22T03:37:02.098Z,16.08
2022-10-22T03:42:07.743Z,19.70
2022-10-22T03:47:16.138Z,15.15
2022-10-22T03:52:18.178Z,14.35
2022-10-22T03:57:19.625Z,14.82
2022-10-22T04:02:22.680Z,12.65
2022-10-22T04:07:24.581Z,15.23
2022-10-22T04:12:26.234Z,12.35
2022-10-22T04:17:34.744Z,15.00
2022-10-22T04:22:37.153Z,13.88
2022-10-22T04:27:38.778Z,13.70
2022-10-22T04:32:44.431Z,10.05
2022-10-22T04:37:48.102Z,13.68
2022-10-22T04:42:49.881Z,11.48
2022-10-22T04:47:51.366Z,16.67
2022-10-22T04:52:56.834Z,12.77
2022-10-22T04:57:58.914Z,11.65
2022-10-22T05:03:00.577Z,10.70
2022-10-22T05:08:02.936Z,11.90
2022-10-22T05:13:08.421Z,14.88
2022-10-22T05:18:10.100Z,10.35
2022-10-22T05:23:11.775Z,12.95
2022-10-22T05:28:13.736Z,20.15
2022-10-22T05:33:15.152Z,17.90
2022-10-22T05:38:17.614Z,14.63
2022-10-22T05:43:19.082Z,29.95
2022-10-22T05:48:20.546Z,28.63
2022-10-22T05:53:22.448Z,26.00
2022-10-22T05:58:24.165Z,13.73
2022-10-22T06:03:26.086Z,16.85
2022-10-22T06:08:28.131Z,18.58
2022-10-22T06:13:29.581Z,18.67
2022-10-22T06:18:31.074Z,21.38
2022-10-22T06:23:33.115Z,13.05
2022-10-22T06:28:34.809Z,11.80
2022-10-22T06:33:42.081Z,11.88
2022-10-22T06:38:44.097Z,11.18
2022-10-22T06:43:49.650Z,16.63
2022-10-22T06:49:00.997Z,13.25
2022-10-22T06:54:02.523Z,12.18
2022-10-22T06:59:04.298Z,18.77
2022-10-22T07:04:06.781Z,17.42
2022-10-22T07:09:08.541Z,19.50
2022-10-22T07:14:11.292Z,17.83
2022-10-22T07:19:13.403Z,18.45
2022-10-22T07:24:14.892Z,22.17
2022-10-22T07:29:16.890Z,19.90
2022-10-22T07:39:25.891Z,18.85
2022-10-22T07:44:27.556Z,21.05
2022-10-22T07:49:29.065Z,22.83
2022-10-22T07:54:30.545Z,30.05
2022-10-22T07:59:32.060Z,25.45
2022-10-22T08:04:33.862Z,13.98
2022-10-22T08:09:36.119Z,17.05
2022-10-22T08:14:40.556Z,13.98
2022-10-22T08:19:42.397Z,10.77
2022-10-22T08:24:44.079Z,12.73
2022-10-22T08:29:49.278Z,13.48
2022-10-22T08:34:50.952Z,13.27
2022-10-22T08:39:52.498Z,13.07
2022-10-22T08:45:06.265Z,13.85
2022-10-22T08:50:15.656Z,16.38
2022-10-22T08:55:17.525Z,11.52
2022-10-22T09:00:34.201Z,11.45
2022-10-22T09:05:41.793Z,10.52
2022-10-22T09:10:49.017Z,9.68
2022-10-22T09:15:54.962Z,9.77
2022-10-22T09:21:17.040Z,9.50
2022-10-22T09:26:18.510Z,14.48
2022-10-22T09:31:20.012Z,10.48
2022-10-22T09:36:22.865Z,10.85
2022-10-22T09:41:32.328Z,10.85
2022-10-22T09:46:43.940Z,14.93
2022-10-22T09:51:56.153Z,11.77
2022-10-22T09:57:22.032Z,9.45
2022-10-22T10:02:37.928Z,10.32
2022-10-22T10:07:40.782Z,9.93
2022-10-22T10:12:48.209Z,11.57
2022-10-22T10:18:04.054Z,13.23
2022-10-22T10:23:27.933Z,13.77
2022-10-22T10:29:00.484Z,9.98
2022-10-22T10:34:31.625Z,12.05
2022-10-22T10:40:10.457Z,12.60
2022-10-22T10:45:24.214Z,8.25
2022-10-22T10:50:47.722Z,8.23
2022-10-22T10:56:07.527Z,6.45
2022-10-22T11:06:27.592Z,12.55
2022-10-22T11:11:38.654Z,11.35
2022-10-22T11:16:46.650Z,10.32
2022-10-22T11:22:10.530Z,8.25
2022-10-22T11:27:31.354Z,10.65
2022-10-22T11:32:33.321Z,12.25
2022-10-22T11:37:39.159Z,13.40
2022-10-22T11:42:46.580Z,16.25
2022-10-22T11:47:57.609Z,11.65
2022-10-22T11:53:03.818Z,11.02
2022-10-22T11:58:28.364Z,8.40
2022-10-22T12:03:52.621Z,12.27
2022-10-22T12:08:54.931Z,11.60
2022-10-22T12:14:20.101Z,12.50
2022-10-22T12:19:31.749Z,11.77
2022-10-22T12:24:39.046Z,13.73
2022-10-22T12:29:42.554Z,7.72
2022-10-22T12:34:56.179Z,8.85
2022-10-22T12:40:37.229Z,9.07
2022-10-22T12:45:40.180Z,8.57
2022-10-22T12:50:47.887Z,11.65
2022-10-22T12:55:52.081Z,7.63
2022-10-22T13:00:59.538Z,8.63
2022-10-22T13:06:20.261Z,9.25
2022-10-22T13:11:22.062Z,7.55
2022-10-22T13:16:26.099Z,10.80
2022-10-22T13:21:39.839Z,8.02
2022-10-22T13:26:41.876Z,10.27
2022-10-22T13:31:50.180Z,8.20
2022-10-22T13:36:54.123Z,8.40
2022-10-22T13:41:55.636Z,11.65
2022-10-22T13:46:57.098Z,16.42
2022-10-22T13:52:00.539Z,6.72
2022-10-22T13:57:02.259Z,6.85
2022-10-22T14:02:07.250Z,11.38
2022-10-22T14:07:14.279Z,8.95
2022-10-22T14:12:17.437Z,8.18
2022-10-22T14:17:20.020Z,7.75
2022-10-22T14:22:23.679Z,6.40
2022-10-22T14:27:25.239Z,7.45
2022-10-22T14:32:28.319Z,8.68
2022-10-22T14:37:29.945Z,9.30
2022-10-22T14:42:32.876Z,10.65
2022-10-22T14:47:36.970Z,12.82
2022-10-22T14:52:38.560Z,12.15
2022-10-22T14:57:40.990Z,9.48
2022-10-22T15:02:43.706Z,8.43
2022-10-22T15:07:48.431Z,8.73
2022-10-22T15:12:52.885Z,11.63
2022-10-22T15:17:54.417Z,13.20
2022-10-22T15:22:56.730Z,13.90
2022-10-22T15:28:00.838Z,7.28
2022-10-22T15:33:06.980Z,11.85
2022-10-22T15:38:09.240Z,11.50
2022-10-22T15:43:11.417Z,8.85
2022-10-22T15:48:19.624Z,11.93
2022-10-22T15:53:21.315Z,12.10
2022-10-22T15:58:22.849Z,13.55
2022-10-22T16:03:24.477Z,9.82
2022-10-22T16:08:30.262Z,9.82
2022-10-22T16:13:31.835Z,9.60
2022-10-22T16:18:33.838Z,9.95
2022-10-22T16:23:35.491Z,14.10
2022-10-22T16:28:37.027Z,9.68
2022-10-22T16:33:46.458Z,9.82
2022-10-22T16:38:51.362Z,11.80
2022-10-22T16:43:55.198Z,6.93
2022-10-22T16:48:56.852Z,11.02
2022-10-22T16:53:58.295Z,8.95
2022-10-22T16:58:59.773Z,9.82
2022-10-22T17:04:01.665Z,13.73
2022-10-22T17:09:03.545Z,13.40
2022-10-22T17:14:05.613Z,14.73
2022-10-22T17:19:07.253Z,9.90
2022-10-22T17:24:09.851Z,14.40
2022-10-22T17:29:13.094Z,11.13
2022-10-22T17:34:17.660Z,11.98
2022-10-22T17:39:23.602Z,11.98
2022-10-22T17:44:25.636Z,11.82
2022-10-22T17:49:30.349Z,16.70
2022-10-22T17:54:33.001Z,15.82
2022-10-22T17:59:34.541Z,14.38
2022-10-22T18:04:36.040Z,17.38
2022-10-22T18:09:39.437Z,13.20
2022-10-22T18:14:42.006Z,14.77
2022-10-22T18:19:47.932Z,17.65
2022-10-22T18:24:50.818Z,13.63
2022-10-22T18:29:52.266Z,11.23
2022-10-22T18:34:54.104Z,18.20
2022-10-22T18:39:57.410Z,15.35
2022-10-22T18:45:01.063Z,14.93
2022-10-22T18:50:02.748Z,9.48
2022-10-22T18:55:04.987Z,13.70
2022-10-22T19:00:07.407Z,14.45
2022-10-22T19:05:09.476Z,18.25
2022-10-22T19:10:12.925Z,12.85
2022-10-22T19:15:14.524Z,11.52
2022-10-22T19:20:17.428Z,14.43
2022-10-22T19:25:20.000Z,12.85
2022-10-22T19:30:21.469Z,15.35
2022-10-22T19:35:23.158Z,11.23
2022-10-22T19:40:27.423Z,15.93
2022-10-22T19:45:31.588Z,20.38
2022-10-22T19:50:36.281Z,12.40
2022-10-22T19:55:46.435Z,10.38
2022-10-22T20:00:48.238Z,11.75
2022-10-22T20:05:53.098Z,14.63
2022-10-22T20:10:54.806Z,13.45
2022-10-22T20:15:56.867Z,12.85
2022-10-22T20:20:58.665Z,15.25
2022-10-22T20:26:01.055Z,12.48
2022-10-22T20:31:21.011Z,13.70
2022-10-22T20:36:24.125Z,12.55
2022-10-22T20:41:31.806Z,16.17
2022-10-22T20:46:34.288Z,18.13
2022-10-22T20:51:40.009Z,15.10
2022-10-22T20:56:42.546Z,20.02
2022-10-22T21:01:47.662Z,16.23
2022-10-22T21:06:50.364Z,17.35
2022-10-22T21:11:55.808Z,18.65
2022-10-22T21:16:59.738Z,13.10
2022-10-22T21:22:01.777Z,19.02
2022-10-22T21:27:03.955Z,15.70
2022-10-22T21:32:05.424Z,23.88
2022-10-22T21:37:06.897Z,19.98
2022-10-22T21:42:08.410Z,18.02
2022-10-22T21:47:09.925Z,16.60
2022-10-22T21:52:11.450Z,12.27
2022-10-22T21:57:12.898Z,13.88
2022-10-22T22:02:14.474Z,15.18
2022-10-22T22:07:41.231Z,10.65
2022-10-22T22:12:43.535Z,14.23
2022-10-22T22:17:46.425Z,14.35
2022-10-22T22:22:48.119Z,16.35
2022-10-22T22:27:49.747Z,13.20
2022-10-22T22:32:51.300Z,10.07
2022-10-22T22:37:53.261Z,11.60
2022-10-22T22:42:54.775Z,11.13
2022-10-22T22:47:57.165Z,15.23
2022-10-22T22:52:59.063Z,10.68
2022-10-22T22:58:00.804Z,11.55
2022-10-22T23:03:02.875Z,14.05
2022-10-22T23:08:04.965Z,12.63
2022-10-22T23:13:06.604Z,9.85
2022-10-22T23:18:08.026Z,14.88
2022-10-22T23:23:10.060Z,9.13
2022-10-22T23:28:15.120Z,18.33
2022-10-22T23:33:17.199Z,11.77
2022-10-22T23:38:18.669Z,10.18
2022-10-22T23:43:20.126Z,11.73
2022-10-22T23:48:22.219Z,13.48
2022-10-22T23:53:26.412Z,12.48
2022-10-22T23:58:27.833Z,8.50
